Time;durP1;ratioP1;P1;durP2;ratioP2;P2;SDS_P1;SDS_P2;PMS_P1;PMS_P2;Temp;Humidity;BMP_temperature;BMP_pressure;BME280_temperature;BME280_humidity;BME280_pressure;Samples;Min_cycle;Max_cycle;Signal;HPM_P1;HPM_P2
2022/10/05 11:34:59;;;;;;;6.40;5.70;;;;;;;;;;6259166;22;20026;-83
2022/10/05 11:38:00;;;;;;;8.23;6.68;;;;;;;;;;6279131;22;20011;-88
2022/10/05 11:40:37;;;;;;;6.68;6.07;;;;;;;;;;6232139;23;20378;-88
2022/10/05 11:43:18;;;;;;;7.22;6.40;;;;;;;;;;6248247;23;20011;-88
2022/10/05 11:46:08;;;;;;;8.10;7.30;;;;;;;;;;6248350;23;20024;-90
2022/10/05 17:21:01;;;;;;;22.30;17.67;;;;;;;;;;6294348;22;20016;-83
2022/10/05 17:23:30;;;;;;;21.55;14.52;;;;;;;;;;6278178;22;20015;-84
2022/10/05 17:26:05;;;;;;;30.73;20.50;;;;;;;;;;6278765;22;20004;-89
2022/10/05 17:28:40;;;;;;;43.88;25.60;;;;;;;;;;6247798;23;20083;-88
2022/10/05 17:31:16;;;;;;;38.47;24.27;;;;;;;;;;6248132;23;20431;-86
2022/10/05 17:34:16;;;;;;;41.20;25.38;;;;;;;;;;6247143;23;20012;-92
2022/10/05 17:36:47;;;;;;;43.33;25.35;;;;;;;;;;6247437;23;20054;-94
2022/10/05 17:39:40;;;;;;;33.35;22.02;;;;;;;;;;6220943;23;20000;-90
2022/10/05 17:42:25;;;;;;;17.15;13.80;;;;;;;;;;6221386;23;20011;-90
2022/10/05 17:44:57;;;;;;;16.33;12.55;;;;;;;;;;6249737;23;20024;-93
2022/10/05 17:47:55;;;;;;;14.95;13.32;;;;;;;;;;6220913;23;20039;-91
2022/10/05 17:56:54;;;;;;;10.48;8.85;;;;;;;;;;6247477;23;20066;-90
2022/10/05 17:59:47;;;;;;;8.35;7.45;;;;;;;;;;6246720;23;20012;-86
2022/10/05 18:02:36;;;;;;;8.55;7.75;;;;;;;;;;6220155;23;20011;-88
2022/10/05 18:05:14;;;;;;;11.18;7.57;;;;;;;;;;6247068;23;20007;-88
2022/10/05 18:08:12;;;;;;;12.85;8.40;;;;;;;;;;6220348;23;20036;-88
2022/10/05 18:11:15;;;;;;;8.52;7.65;;;;;;;;;;6247159;23;20008;-91
2022/10/05 18:13:48;;;;;;;8.73;7.82;;;;;;;;;;6220686;23;20008;-89
2022/10/05 18:16:52;;;;;;;8.88;8.00;;;;;;;;;;6220620;23;20028;-89
2022/10/05 18:19:20;;;;;;;9.43;7.70;;;;;;;;;;6247107;23;20049;-92
2022/10/05 18:22:09;;;;;;;10.40;8.90;;;;;;;;;;6246958;23;20008;-89
2022/10/05 18:25:02;;;;;;;9.90;8.98;;;;;;;;;;6247937;23;20000;-89
2022/10/05 18:27:57;;;;;;;13.52;9.40;;;;;;;;;;6247845;23;20004;-90
2022/10/05 18:30:29;;;;;;;11.00;9.48;;;;;;;;;;6247452;23;20066;-94
2022/10/05 18:33:13;;;;;;;10.68;9.48;;;;;;;;;;6246992;23;20000;-89
2022/10/05 18:35:51;;;;;;;14.90;12.10;;;;;;;;;;6221009;23;20304;-91
2022/10/05 18:38:44;;;;;;;11.85;10.38;;;;;;;;;;6246933;23;20006;-89
2022/10/05 18:41:31;;;;;;;14.23;12.57;;;;;;;;;;6246936;23;20415;-90
2022/10/05 18:44:03;;;;;;;12.75;10.38;;;;;;;;;;6219845;23;20008;-92
2022/10/05 18:46:43;;;;;;;12.38;10.20;;;;;;;;;;6246416;23;20024;-89
2022/10/05 18:49:25;;;;;;;17.13;14.43;;;;;;;;;;6247351;23;20008;-91
2022/10/05 18:52:03;;;;;;;15.40;12.27;;;;;;;;;;6246598;23;20345;-90
2022/10/05 18:55:02;;;;;;;17.10;13.35;;;;;;;;;;6247236;23;20000;-86
2022/10/05 18:57:33;;;;;;;13.85;11.05;;;;;;;;;;6219353;23;20087;-88
2022/10/05 19:00:18;;;;;;;15.65;12.23;;;;;;;;;;6247030;23;20026;-95
2022/10/05 19:02:52;;;;;;;10.75;9.65;;;;;;;;;;6248807;23;20031;-88
2022/10/05 19:05:38;;;;;;;12.15;10.68;;;;;;;;;;6248164;23;20000;-85
2022/10/05 19:08:26;;;;;;;13.40;11.10;;;;;;;;;;6219553;23;20027;-89
2022/10/05 19:11:25;;;;;;;12.73;11.20;;;;;;;;;;6219862;23;20426;-89
2022/10/05 19:14:08;;;;;;;14.50;12.23;;;;;;;;;;6220284;23;20334;-88
2022/10/05 19:16:51;;;;;;;12.50;10.38;;;;;;;;;;6246573;23;20007;-88
2022/10/05 19:19:24;;;;;;;11.13;9.73;;;;;;;;;;6219850;23;20022;-88
2022/10/05 19:21:49;;;;;;;12.15;10.95;;;;;;;;;;6242199;23;20024;-85
2022/10/05 19:25:09;;;;;;;13.07;11.85;;;;;;;;;;6247008;22;20083;-89
2022/10/05 19:28:01;;;;;;;10.32;9.32;;;;;;;;;;6246402;22;20407;-86
2022/10/05 19:30:54;;;;;;;11.60;10.10;;;;;;;;;;6246476;23;20374;-86
2022/10/05 19:33:40;;;;;;;11.57;9.65;;;;;;;;;;6247350;23;20091;-89
2022/10/05 19:36:20;;;;;;;12.23;10.15;;;;;;;;;;6248125;22;20004;-90
2022/10/05 19:38:54;;;;;;;18.10;13.45;;;;;;;;;;6247756;23;20004;-90
2022/10/05 19:41:29;;;;;;;14.85;11.77;;;;;;;;;;6247256;23;20040;-88
2022/10/05 19:44:18;;;;;;;12.95;10.30;;;;;;;;;;6249704;22;20007;-88
2022/10/05 19:46:59;;;;;;;10.13;9.10;;;;;;;;;;6247369;22;20373;-85
2022/10/05 19:49:42;;;;;;;10.50;9.38;;;;;;;;;;6246754;22;20004;-87
2022/10/05 19:52:19;;;;;;;10.82;9.65;;;;;;;;;;6247089;22;20007;-87
2022/10/05 19:54:47;;;;;;;14.10;12.68;;;;;;;;;;6247884;22;19996;-87
2022/10/05 19:57:16;;;;;;;12.35;10.15;;;;;;;;;;6246831;23;20008;-84
2022/10/05 19:59:47;;;;;;;11.23;9.35;;;;;;;;;;6248052;22;20415;-87
2022/10/05 20:02:16;;;;;;;10.25;9.25;;;;;;;;;;6248166;22;20007;-90
2022/10/05 20:04:48;;;;;;;15.65;11.40;;;;;;;;;;6248741;22;20003;-84
2022/10/05 20:07:16;;;;;;;14.65;10.93;;;;;;;;;;6247357;23;20047;-91
2022/10/05 20:09:58;;;;;;;14.57;11.20;;;;;;;;;;6248195;22;20008;-90
2022/10/05 20:12:46;;;;;;;11.23;10.13;;;;;;;;;;6248818;22;20007;-84
2022/10/05 20:21:44;;;;;;;12.52;9.43;;;;;;;;;;6247933;23;20031;-84
2022/10/05 20:24:12;;;;;;;13.38;10.18;;;;;;;;;;6248203;23;20000;-88
2022/10/05 20:27:01;;;;;;;15.05;10.40;;;;;;;;;;6247956;23;20004;-88
2022/10/05 20:29:34;;;;;;;11.05;9.88;;;;;;;;;;6247997;23;20004;-93
2022/10/05 20:32:07;;;;;;;12.43;10.88;;;;;;;;;;6248233;23;20439;-85
2022/10/05 20:34:34;;;;;;;10.40;9.18;;;;;;;;;;6248228;23;20023;-84
2022/10/05 20:37:00;;;;;;;11.98;9.95;;;;;;;;;;6247864;23;20004;-84
2022/10/05 20:39:25;;;;;;;10.10;8.70;;;;;;;;;;6248049;23;20015;-85
2022/10/05 20:41:51;;;;;;;9.57;8.57;;;;;;;;;;6248368;23;20004;-87
2022/10/05 20:44:16;;;;;;;10.10;9.10;;;;;;;;;;6248050;23;20427;-91
2022/10/05 20:46:42;;;;;;;11.43;9.50;;;;;;;;;;6247843;23;20012;-89
2022/10/05 20:49:09;;;;;;;10.38;9.38;;;;;;;;;;6247685;23;20030;-90
2022/10/05 20:51:36;;;;;;;9.98;8.65;;;;;;;;;;6247948;23;20075;-90
2022/10/05 20:54:03;;;;;;;10.57;9.48;;;;;;;;;;6248024;23;20024;-92
2022/10/05 20:56:29;;;;;;;12.98;8.77;;;;;;;;;;6247667;23;20443;-88
2022/10/05 20:58:55;;;;;;;11.95;9.90;;;;;;;;;;6248163;23;20000;-93
2022/10/05 21:01:25;;;;;;;11.07;9.50;;;;;;;;;;6248398;23;20462;-89
2022/10/05 21:03:52;;;;;;;11.02;9.90;;;;;;;;;;6247866;23;20000;-92
2022/10/05 21:06:17;;;;;;;12.75;11.20;;;;;;;;;;6247180;23;20035;-91
2022/10/05 21:08:45;;;;;;;10.65;9.48;;;;;;;;;;6247837;23;20011;-91
2022/10/05 21:11:12;;;;;;;12.18;10.43;;;;;;;;;;6247813;23;20086;-85
2022/10/05 21:13:43;;;;;;;10.90;9.43;;;;;;;;;;6247821;23;20003;-90
2022/10/05 21:16:12;;;;;;;10.68;9.57;;;;;;;;;;6247727;23;20067;-94
2022/10/05 21:18:43;;;;;;;11.30;9.63;;;;;;;;;;6248027;23;20000;-88
2022/10/05 21:21:08;;;;;;;13.00;10.13;;;;;;;;;;6247442;23;20012;-93
2022/10/05 21:23:34;;;;;;;11.18;10.07;;;;;;;;;;6247519;23;20415;-84
2022/10/05 21:26:00;;;;;;;10.30;9.20;;;;;;;;;;6248273;23;20477;-87
2022/10/05 21:28:27;;;;;;;11.60;8.93;;;;;;;;;;6247779;23;20027;-85
2022/10/05 21:30:53;;;;;;;10.23;9.07;;;;;;;;;;6247721;23;20061;-85
2022/10/05 21:33:19;;;;;;;10.13;8.98;;;;;;;;;;6247387;23;20502;-85
2022/10/05 21:35:44;;;;;;;9.73;8.82;;;;;;;;;;6247563;23;20023;-85
2022/10/05 21:38:10;;;;;;;9.25;8.35;;;;;;;;;;6247558;23;20004;-85
2022/10/05 21:40:35;;;;;;;9.90;8.90;;;;;;;;;;6247896;23;20004;-85
2022/10/05 21:43:01;;;;;;;9.30;8.32;;;;;;;;;;6247473;23;20430;-87
2022/10/05 21:45:27;;;;;;;9.45;7.70;;;;;;;;;;6220537;23;20015;-85
2022/10/05 21:47:53;;;;;;;10.45;9.35;;;;;;;;;;6247459;23;20081;-91
2022/10/05 21:50:18;;;;;;;9.55;8.65;;;;;;;;;;6247346;23;20419;-92
2022/10/05 21:52:44;;;;;;;10.52;8.93;;;;;;;;;;6248197;23;20354;-85
2022/10/05 21:55:10;;;;;;;11.38;9.18;;;;;;;;;;6252651;23;20004;-85
2022/10/05 21:57:36;;;;;;;9.80;8.80;;;;;;;;;;6253619;23;20004;-85
2022/10/05 22:00:06;;;;;;;10.77;8.82;;;;;;;;;;6256994;23;20000;-86
2022/10/05 22:02:32;;;;;;;9.68;7.85;;;;;;;;;;6256522;23;20004;-85
2022/10/05 22:04:58;;;;;;;9.00;8.07;;;;;;;;;;6227050;23;20019;-84
2022/10/05 22:07:23;;;;;;;9.73;8.73;;;;;;;;;;6259391;23;20030;-86
2022/10/05 22:09:50;;;;;;;9.63;8.52;;;;;;;;;;6253675;23;20008;-91
2022/10/05 22:12:16;;;;;;;10.27;7.93;;;;;;;;;;6247405;23;20000;-87
2022/10/05 22:14:42;;;;;;;9.60;8.60;;;;;;;;;;6247601;23;20001;-93
2022/10/05 22:17:16;;;;;;;9.63;8.63;;;;;;;;;;6247112;23;20000;-88
2022/10/05 22:19:41;;;;;;;10.10;9.05;;;;;;;;;;6247268;23;20023;-92
2022/10/05 22:22:07;;;;;;;10.45;9.07;;;;;;;;;;6220829;23;20328;-94
2022/10/05 22:24:32;;;;;;;9.65;8.73;;;;;;;;;;6247302;23;20083;-90
2022/10/05 22:26:58;;;;;;;11.27;10.18;;;;;;;;;;6247339;23;20046;-92
2022/10/05 22:29:23;;;;;;;10.32;9.32;;;;;;;;;;6247622;23;20008;-90
2022/10/05 22:31:49;;;;;;;11.73;10.05;;;;;;;;;;6247490;23;20024;-91
2022/10/05 22:34:15;;;;;;;11.25;10.15;;;;;;;;;;6247258;23;20038;-89
2022/10/05 22:36:40;;;;;;;10.85;9.85;;;;;;;;;;6247038;23;20006;-90
2022/10/05 22:39:07;;;;;;;10.80;9.32;;;;;;;;;;6247095;23;20015;-91
2022/10/05 22:41:32;;;;;;;10.27;9.27;;;;;;;;;;6247382;23;20004;-92
2022/10/05 22:43:58;;;;;;;11.38;10.10;;;;;;;;;;6247232;23;20446;-92
2022/10/05 22:46:24;;;;;;;11.75;10.45;;;;;;;;;;6247274;23;20442;-94
2022/10/05 22:48:49;;;;;;;11.48;10.30;;;;;;;;;;6246924;23;20004;-87
2022/10/05 22:51:15;;;;;;;10.10;9.10;;;;;;;;;;6247355;23;20041;-93
2022/10/05 22:53:40;;;;;;;10.07;8.93;;;;;;;;;;6247479;23;20423;-94
2022/10/05 22:56:08;;;;;;;11.40;8.93;;;;;;;;;;6247382;23;20082;-94
2022/10/05 22:58:34;;;;;;;9.43;8.10;;;;;;;;;;6247509;23;20004;-93
2022/10/05 23:01:05;;;;;;;9.38;8.48;;;;;;;;;;6247149;23;20035;-90
2022/10/05 23:03:32;;;;;;;9.30;8.40;;;;;;;;;;6220187;23;20066;-92
2022/10/05 23:06:01;;;;;;;10.45;9.15;;;;;;;;;;6247447;23;20004;-90
2022/10/05 23:08:27;;;;;;;9.95;8.90;;;;;;;;;;6247683;23;20430;-89
2022/10/05 23:10:53;;;;;;;10.15;8.90;;;;;;;;;;6219509;23;20035;-88
2022/10/05 23:13:18;;;;;;;10.20;9.20;;;;;;;;;;6246343;23;20000;-85
2022/10/05 23:15:43;;;;;;;9.27;8.38;;;;;;;;;;6219654;23;20071;-85
2022/10/05 23:18:10;;;;;;;9.48;8.48;;;;;;;;;;6246660;23;20380;-84
2022/10/05 23:20:36;;;;;;;10.13;9.00;;;;;;;;;;6226273;23;20020;-86
2022/10/05 23:23:01;;;;;;;12.23;9.00;;;;;;;;;;6219690;23;20075;-86
2022/10/05 23:25:27;;;;;;;10.10;9.10;;;;;;;;;;6246750;23;20000;-88
2022/10/05 23:27:52;;;;;;;12.07;10.07;;;;;;;;;;6246784;23;20087;-93
2022/10/05 23:30:18;;;;;;;11.95;9.50;;;;;;;;;;6247895;23;20113;-85
2022/10/05 23:32:44;;;;;;;10.38;9.30;;;;;;;;;;6248283;23;20062;-85
2022/10/05 23:35:12;;;;;;;12.90;9.38;;;;;;;;;;6248274;23;20439;-82
